createdAt,value
2023-03-24T00:03:25.480Z,437.23
2023-03-24T00:08:34.452Z,437.45
2023-03-24T00:13:43.506Z,438.18
2023-03-24T00:18:51.329Z,437.89
2023-03-24T00:24:03.982Z,437.58
2023-03-24T00:29:11.670Z,437.50
2023-03-24T00:34:19.501Z,437.30
2023-03-24T00:39:27.232Z,437.50
2023-03-24T00:44:34.919Z,436.74
2023-03-24T00:49:51.761Z,435.55
2023-03-24T00:54:59.282Z,433.19
2023-03-24T01:00:07.011Z,433.22
2023-03-24T01:06:08.642Z,432.88
2023-03-24T01:10:36.145Z,433.31
2023-03-24T01:15:43.829Z,434.74
2023-03-24T01:21:03.056Z,435.85
2023-03-24T01:26:10.495Z,436.60
2023-03-24T01:31:29.030Z,437.27
2023-03-24T01:36:36.452Z,438.76
2023-03-24T01:41:50.301Z,438.50
2023-03-24T01:46:57.658Z,438.70
2023-03-24T01:52:05.065Z,439.02
2023-03-24T01:57:12.614Z,438.72
2023-03-24T02:02:19.985Z,438.97
2023-03-24T02:07:27.572Z,438.90
2023-03-24T02:12:35.303Z,439.28
2023-03-24T02:17:42.647Z,439.84
2023-03-24T02:22:50.233Z,440.57
2023-03-24T02:27:57.729Z,441.06
2023-03-24T02:33:05.129Z,442.47
2023-03-24T02:38:12.451Z,443.13
2023-03-24T02:43:27.410Z,443.18
2023-03-24T02:48:32.703Z,443.34
2023-03-24T02:53:40.189Z,443.88
2023-03-24T02:58:47.727Z,443.41
2023-03-24T03:03:59.835Z,443.92
2023-03-24T03:09:44.247Z,444.12
2023-03-24T03:14:51.599Z,444.27
2023-03-24T03:19:59.184Z,443.79
2023-03-24T03:25:06.486Z,443.05
2023-03-24T03:30:14.137Z,443.19
2023-03-24T03:35:21.628Z,442.27
2023-03-24T03:40:29.148Z,442.39
2023-03-24T03:45:36.680Z,442.22
2023-03-24T03:50:44.369Z,442.63
2023-03-24T03:55:51.773Z,446.23
2023-03-24T04:01:03.189Z,449.67
2023-03-24T04:06:15.348Z,450.45
2023-03-24T04:11:22.708Z,449.53
2023-03-24T04:16:30.344Z,449.25
2023-03-24T04:21:37.843Z,448.64
2023-03-24T04:26:45.374Z,450.42
2023-03-24T04:31:52.946Z,449.68
2023-03-24T04:37:00.140Z,450.54
2023-03-24T04:42:07.575Z,451.71
2023-03-24T04:47:15.132Z,452.23
2023-03-24T04:52:22.504Z,452.54
2023-03-24T04:57:29.743Z,452.50
2023-03-24T05:02:37.127Z,452.55
2023-03-24T05:07:44.250Z,451.78
2023-03-24T05:12:51.454Z,450.94
2023-03-24T05:17:58.812Z,450.96
2023-03-24T05:23:06.057Z,451.43
2023-03-24T05:28:13.243Z,450.89
2023-03-24T05:33:20.579Z,450.53
2023-03-24T05:38:27.723Z,449.58
2023-03-24T05:43:34.909Z,447.26
2023-03-24T05:48:42.100Z,446.58
2023-03-24T05:53:49.243Z,444.85
2023-03-24T05:58:56.450Z,443.43
2023-03-24T06:04:03.748Z,443.01
2023-03-24T06:09:10.813Z,440.51
2023-03-24T06:14:18.095Z,439.17
2023-03-24T06:19:25.389Z,439.54
2023-03-24T06:24:32.657Z,438.59
2023-03-24T06:29:39.867Z,439.25
2023-03-24T06:34:47.061Z,439.48
2023-03-24T06:39:54.226Z,440.40
2023-03-24T06:45:01.435Z,438.14
2023-03-24T06:50:08.705Z,439.10
2023-03-24T06:55:15.871Z,439.16
2023-03-24T07:00:23.151Z,438.44
2023-03-24T07:05:30.347Z,439.26
2023-03-24T07:10:37.514Z,438.87
2023-03-24T07:15:44.682Z,437.72
2023-03-24T07:20:51.917Z,437.17
2023-03-24T07:25:59.120Z,436.32
2023-03-24T07:31:06.374Z,436.69
2023-03-24T07:36:13.701Z,435.56
2023-03-24T07:41:20.725Z,434.99
2023-03-24T07:46:27.944Z,434.06
2023-03-24T07:51:38.482Z,434.06
2023-03-24T07:56:42.319Z,434.15
2023-03-24T08:01:51.497Z,432.89
2023-03-24T08:06:56.845Z,432.42
2023-03-24T08:12:13.519Z,432.25
2023-03-24T08:17:11.130Z,432.35
2023-03-24T08:22:18.450Z,431.78
2023-03-24T08:27:25.582Z,431.68
2023-03-24T08:32:32.796Z,431.36
2023-03-24T08:37:40.004Z,431.24
2023-03-24T08:42:47.165Z,429.08
2023-03-24T08:47:54.445Z,426.60
2023-03-24T08:53:01.644Z,424.94
2023-03-24T08:58:08.780Z,424.36
2023-03-24T09:03:15.981Z,423.43
2023-03-24T09:08:23.209Z,423.72
2023-03-24T09:13:30.358Z,422.83
2023-03-24T09:18:37.530Z,420.41
2023-03-24T09:23:44.918Z,418.76
2023-03-24T09:28:52.007Z,419.00
2023-03-24T09:33:59.400Z,419.53
2023-03-24T09:39:06.609Z,420.69
2023-03-24T09:44:13.847Z,423.63
2023-03-24T09:49:21.247Z,425.09
2023-03-24T09:54:28.591Z,427.34
2023-03-24T09:59:35.852Z,426.42
2023-03-24T10:04:43.188Z,426.37
2023-03-24T10:09:50.476Z,427.11
2023-03-24T10:14:57.798Z,426.57
2023-03-24T10:20:05.094Z,427.33
2023-03-24T10:25:12.457Z,427.14
2023-03-24T10:30:19.592Z,427.46
2023-03-24T10:35:26.796Z,427.21
2023-03-24T10:40:34.044Z,427.53
2023-03-24T10:45:41.268Z,427.42
2023-03-24T10:50:48.401Z,427.09
2023-03-24T10:55:55.662Z,426.49
2023-03-24T11:01:03.024Z,425.65
2023-03-24T11:06:10.048Z,424.85
2023-03-24T11:11:17.219Z,424.24
2023-03-24T11:16:24.453Z,423.50
2023-03-24T11:21:31.616Z,424.10
2023-03-24T11:26:38.807Z,424.25
2023-03-24T11:31:45.942Z,424.14
2023-03-24T11:36:53.317Z,425.46
2023-03-24T11:42:00.494Z,426.27
2023-03-24T11:47:07.746Z,427.65
2023-03-24T11:52:14.969Z,426.92
2023-03-24T11:57:22.192Z,425.78
2023-03-24T12:02:29.383Z,426.57
2023-03-24T12:07:36.590Z,425.36
2023-03-24T12:12:43.843Z,424.61
2023-03-24T12:17:51.017Z,425.44
2023-03-24T12:22:58.199Z,426.06
2023-03-24T12:28:05.401Z,426.86
2023-03-24T12:33:12.656Z,426.93
2023-03-24T12:38:19.873Z,425.53
2023-03-24T12:43:27.071Z,427.04
2023-03-24T12:48:34.210Z,428.27
2023-03-24T12:53:41.389Z,428.24
2023-03-24T12:58:48.612Z,428.21
2023-03-24T13:03:55.859Z,428.76
2023-03-24T13:09:03.047Z,429.27
2023-03-24T13:14:10.351Z,427.25
2023-03-24T13:19:17.548Z,426.81
2023-03-24T13:24:24.801Z,427.16
2023-03-24T13:29:41.787Z,425.13
2023-03-24T13:34:39.270Z,425.21
2023-03-24T13:39:46.497Z,425.59
2023-03-24T13:44:53.732Z,425.38
2023-03-24T13:50:00.962Z,426.52
2023-03-24T13:55:08.126Z,425.83
2023-03-24T14:00:15.327Z,426.32
2023-03-24T14:05:22.520Z,425.57
2023-03-24T14:10:29.683Z,425.88
2023-03-24T14:15:36.971Z,427.13
2023-03-24T14:20:44.141Z,425.11
2023-03-24T14:25:52.397Z,424.83
2023-03-24T14:30:59.653Z,424.32
2023-03-24T14:36:07.038Z,424.71
2023-03-24T14:41:14.057Z,425.87
2023-03-24T14:46:21.373Z,424.41
2023-03-24T14:51:28.449Z,424.06
2023-03-24T14:56:35.691Z,424.07
2023-03-24T15:01:42.883Z,423.10
2023-03-24T15:06:49.993Z,422.01
2023-03-24T15:11:57.262Z,422.39
2023-03-24T15:17:04.481Z,420.54
2023-03-24T15:22:11.664Z,421.73
2023-03-24T15:27:18.867Z,422.44
2023-03-24T15:32:26.080Z,421.83
2023-03-24T15:37:33.263Z,421.33
2023-03-24T15:42:40.508Z,421.36
2023-03-24T15:47:47.763Z,422.65
2023-03-24T15:52:54.865Z,423.26
2023-03-24T15:58:02.151Z,424.20
2023-03-24T16:03:09.585Z,424.67
2023-03-24T16:08:16.644Z,423.69
2023-03-24T16:13:23.987Z,422.94
2023-03-24T16:18:31.210Z,422.38
2023-03-24T16:23:38.412Z,422.69
2023-03-24T16:28:45.565Z,421.58
2023-03-24T16:33:52.774Z,421.78
2023-03-24T16:38:59.936Z,422.90
2023-03-24T16:44:07.084Z,422.74
2023-03-24T16:49:14.349Z,423.10
2023-03-24T16:54:21.551Z,424.18
2023-03-24T16:59:28.990Z,424.41
2023-03-24T17:04:36.584Z,424.20
2023-03-24T17:09:43.569Z,423.17
2023-03-24T17:14:50.824Z,422.32
2023-03-24T17:19:58.340Z,422.53
2023-03-24T17:25:06.553Z,422.87
2023-03-24T17:30:13.693Z,422.49
2023-03-24T17:35:20.957Z,421.84
2023-03-24T17:40:28.158Z,421.55
2023-03-24T17:45:35.414Z,421.05
2023-03-24T17:50:42.692Z,421.42
2023-03-24T17:55:50.190Z,422.37
2023-03-24T18:00:57.868Z,422.06
2023-03-24T18:06:05.227Z,420.73
2023-03-24T18:11:12.768Z,420.08
2023-03-24T18:16:21.826Z,419.17
2023-03-24T18:21:27.294Z,418.89
2023-03-24T18:26:34.842Z,418.22
2023-03-24T18:31:44.123Z,417.27
2023-03-24T18:36:51.786Z,416.56
2023-03-24T18:41:59.422Z,415.23
2023-03-24T18:47:07.046Z,412.83
2023-03-24T18:52:14.512Z,412.92
2023-03-24T18:57:22.065Z,412.11
2023-03-24T19:02:29.735Z,412.04
2023-03-24T19:07:37.417Z,412.07
2023-03-24T19:12:44.938Z,414.14
2023-03-24T19:17:52.653Z,414.52
2023-03-24T19:23:00.273Z,413.23
2023-03-24T19:28:07.861Z,415.01
2023-03-24T19:33:15.287Z,418.24
2023-03-24T19:38:22.920Z,418.35
2023-03-24T19:43:30.492Z,414.93
2023-03-24T19:48:38.021Z,415.95
2023-03-24T19:53:45.746Z,415.93
2023-03-24T19:58:53.644Z,415.24
2023-03-24T20:04:01.324Z,413.65
2023-03-24T20:09:09.003Z,413.22
2023-03-24T20:14:16.610Z,412.46
2023-03-24T20:19:24.215Z,414.35
2023-03-24T20:24:31.947Z,410.87
2023-03-24T20:29:39.697Z,411.87
2023-03-24T20:34:47.356Z,411.44
2023-03-24T20:39:54.812Z,411.87
2023-03-24T20:45:02.021Z,410.33
2023-03-24T20:50:09.235Z,411.45
2023-03-24T20:55:16.835Z,410.72
2023-03-24T21:00:24.404Z,410.98
2023-03-24T21:05:32.118Z,411.51
2023-03-24T21:10:42.734Z,411.05
2023-03-24T21:15:50.332Z,411.10
2023-03-24T21:20:57.443Z,411.41
2023-03-24T21:26:04.971Z,410.88
2023-03-24T21:31:12.400Z,410.82
2023-03-24T21:36:19.621Z,410.47
2023-03-24T21:41:26.859Z,410.84
2023-03-24T21:46:33.988Z,408.99
2023-03-24T21:51:41.194Z,407.92
2023-03-24T21:56:48.625Z,407.25
2023-03-24T22:01:55.940Z,407.42
2023-03-24T22:07:03.160Z,408.47
2023-03-24T22:12:10.468Z,408.52
2023-03-24T22:17:17.820Z,407.65
2023-03-24T22:22:25.004Z,408.15
2023-03-24T22:27:32.338Z,408.12
2023-03-24T22:32:39.692Z,409.40
2023-03-24T22:37:46.850Z,407.37
2023-03-24T22:42:54.073Z,407.55
2023-03-24T22:48:01.362Z,407.81
2023-03-24T22:53:08.559Z,408.51
2023-03-24T22:58:15.900Z,408.86
2023-03-24T23:03:23.220Z,409.26
2023-03-24T23:08:30.369Z,408.41
2023-03-24T23:13:37.631Z,408.59
2023-03-24T23:18:44.794Z,408.21
2023-03-24T23:23:52.015Z,408.87
2023-03-24T23:28:59.234Z,408.60
2023-03-24T23:34:06.505Z,408.33
2023-03-24T23:39:13.659Z,409.10
2023-03-24T23:44:20.896Z,409.40
2023-03-24T23:49:28.161Z,410.50
2023-03-24T23:54:35.432Z,410.37
2023-03-24T23:59:42.736Z,410.33
